Time;durP1;ratioP1;P1;durP2;ratioP2;P2;SDS_P1;SDS_P2;PMS_P1;PMS_P2;Temp;Humidity;BMP_temperature;BMP_pressure;BME280_temperature;BME280_humidity;BME280_pressure;Samples;Min_cycle;Max_cycle;Signal;HPM_P1;HPM_P2
2024/01/22 00:00:50;;;;;;;8.88;7.40;;;;;;;;;;5004755;28;20038;-61
2024/01/22 00:03:17;;;;;;;8.88;7.57;;;;;;;;;;5007914;28;20207;-63
2024/01/22 00:05:42;;;;;;;9.95;7.30;;;;;;;;;;5007735;28;20022;-58
2024/01/22 00:08:09;;;;;;;9.18;7.00;;;;;;;;;;5005754;28;20038;-60
2024/01/22 00:13:18;;;;;;;8.88;7.18;;;;;;;;;;5007573;28;20045;-60
2024/01/22 00:15:43;;;;;;;8.43;6.93;;;;;;;;;;5007526;28;20034;-61
2024/01/22 00:18:09;;;;;;;8.98;6.80;;;;;;;;;;5008106;28;20125;-61
2024/01/22 00:20:34;;;;;;;8.75;6.93;;;;;;;;;;5006868;28;20856;-58
2024/01/22 00:23:00;;;;;;;9.02;6.97;;;;;;;;;;5009196;28;20038;-60
2024/01/22 00:25:25;;;;;;;8.85;7.20;;;;;;;;;;5006323;28;20492;-60
2024/01/22 00:27:50;;;;;;;8.18;6.55;;;;;;;;;;5007995;28;20038;-58
2024/01/22 00:30:16;;;;;;;8.02;6.90;;;;;;;;;;5007405;28;20038;-62
2024/01/22 00:32:41;;;;;;;9.65;7.40;;;;;;;;;;5007233;28;20104;-62
2024/01/22 00:35:06;;;;;;;8.88;6.90;;;;;;;;;;5007867;28;20407;-62
2024/01/22 00:37:32;;;;;;;8.77;7.00;;;;;;;;;;5007787;28;20508;-61
2024/01/22 00:39:57;;;;;;;8.50;7.38;;;;;;;;;;5006879;28;20045;-59
2024/01/22 00:42:23;;;;;;;8.07;6.95;;;;;;;;;;5014206;28;20109;-63
2024/01/22 00:44:48;;;;;;;8.35;7.05;;;;;;;;;;5001084;28;20038;-62
2024/01/22 00:47:13;;;;;;;8.38;6.82;;;;;;;;;;4990418;28;20424;-61
2024/01/22 00:49:39;;;;;;;9.07;7.38;;;;;;;;;;4991825;28;20042;-60
2024/01/22 00:52:04;;;;;;;8.43;6.95;;;;;;;;;;4990734;28;20152;-58
2024/01/22 00:54:29;;;;;;;8.55;7.20;;;;;;;;;;5000874;28;20042;-59
2024/01/22 00:56:55;;;;;;;8.52;6.80;;;;;;;;;;5010609;28;20071;-61
2024/01/22 00:59:21;;;;;;;8.35;7.15;;;;;;;;;;5010121;28;20034;-59
2024/01/22 01:01:46;;;;;;;8.75;7.25;;;;;;;;;;5008037;28;20089;-62
2024/01/22 01:04:11;;;;;;;8.63;7.43;;;;;;;;;;5010451;28;20119;-58
2024/01/22 01:06:37;;;;;;;9.02;6.97;;;;;;;;;;5010834;28;20037;-58
2024/01/22 01:09:02;;;;;;;8.38;6.78;;;;;;;;;;5010503;28;20053;-57
2024/01/22 01:11:27;;;;;;;8.70;6.60;;;;;;;;;;5010570;28;20496;-58
2024/01/22 01:13:53;;;;;;;9.25;7.03;;;;;;;;;;5010921;28;20035;-59
2024/01/22 01:16:18;;;;;;;8.95;6.85;;;;;;;;;;5010002;28;20121;-60
2024/01/22 01:18:43;;;;;;;8.65;7.10;;;;;;;;;;5012562;28;20026;-60
2024/01/22 01:21:09;;;;;;;8.55;6.85;;;;;;;;;;5023917;28;20049;-57
2024/01/22 01:23:34;;;;;;;8.77;7.13;;;;;;;;;;5010226;28;20538;-59
2024/01/22 01:26:00;;;;;;;8.65;7.10;;;;;;;;;;5009346;28;20034;-58
2024/01/22 01:28:25;;;;;;;8.23;6.90;;;;;;;;;;5010189;28;20034;-58
2024/01/22 01:30:50;;;;;;;8.38;6.78;;;;;;;;;;5007692;28;20037;-60
2024/01/22 01:33:16;;;;;;;9.10;7.55;;;;;;;;;;5005568;28;20034;-58
2024/01/22 01:35:43;;;;;;;8.52;6.82;;;;;;;;;;5009071;28;20067;-56
2024/01/22 01:38:08;;;;;;;8.80;7.05;;;;;;;;;;5010168;28;20038;-59
2024/01/22 01:40:34;;;;;;;9.23;7.50;;;;;;;;;;5015606;28;20180;-61
2024/01/22 01:42:59;;;;;;;8.27;7.00;;;;;;;;;;5009650;28;20029;-57
2024/01/22 01:45:24;;;;;;;9.13;7.38;;;;;;;;;;5010682;28;20061;-60
2024/01/22 01:47:50;;;;;;;8.65;7.20;;;;;;;;;;5021205;28;20033;-60
2024/01/22 01:50:15;;;;;;;9.52;7.35;;;;;;;;;;5011271;28;20053;-58
2024/01/22 01:52:41;;;;;;;8.45;7.22;;;;;;;;;;5007889;28;20053;-59
2024/01/22 01:55:07;;;;;;;9.07;7.07;;;;;;;;;;5007805;28;20200;-57
2024/01/22 01:57:34;;;;;;;9.23;7.75;;;;;;;;;;5007992;28;20120;-61
2024/01/22 02:00:00;;;;;;;7.93;6.70;;;;;;;;;;5008942;28;20034;-57
2024/01/22 02:02:26;;;;;;;7.82;6.75;;;;;;;;;;5007158;28;20045;-57
2024/01/22 02:04:51;;;;;;;8.93;6.90;;;;;;;;;;5008032;28;20104;-58
2024/01/22 02:07:16;;;;;;;9.25;7.10;;;;;;;;;;5003802;28;20034;-60
2024/01/22 02:09:48;;;;;;;8.82;7.07;;;;;;;;;;5008950;28;20050;-58
2024/01/22 02:12:14;;;;;;;9.32;7.25;;;;;;;;;;5007990;28;20092;-60
2024/01/22 02:14:39;;;;;;;8.70;6.95;;;;;;;;;;5007432;28;20038;-57
2024/01/22 02:17:05;;;;;;;8.65;7.25;;;;;;;;;;5008413;28;20045;-57
2024/01/22 02:19:30;;;;;;;9.00;7.20;;;;;;;;;;5010492;28;20038;-61
2024/01/22 02:21:56;;;;;;;8.80;7.20;;;;;;;;;;5007371;28;20034;-58
2024/01/22 02:24:21;;;;;;;9.13;7.13;;;;;;;;;;5010264;28;20065;-57
2024/01/22 02:26:47;;;;;;;8.77;7.50;;;;;;;;;;5009718;28;20121;-60
2024/01/22 02:29:12;;;;;;;8.50;6.82;;;;;;;;;;5009895;28;20133;-60
2024/01/22 02:31:37;;;;;;;8.25;6.82;;;;;;;;;;5008735;28;20034;-58
2024/01/22 02:34:03;;;;;;;8.88;7.20;;;;;;;;;;5013718;28;20029;-58
2024/01/22 02:36:28;;;;;;;8.88;7.00;;;;;;;;;;5024977;28;20040;-58
2024/01/22 02:38:53;;;;;;;9.30;7.47;;;;;;;;;;5009739;28;20026;-58
2024/01/22 02:41:19;;;;;;;9.10;7.47;;;;;;;;;;5013399;28;20044;-58
2024/01/22 02:43:44;;;;;;;9.57;7.68;;;;;;;;;;5008231;28;20054;-58
2024/01/22 02:46:09;;;;;;;10.80;7.60;;;;;;;;;;5009424;28;20038;-57
2024/01/22 02:48:34;;;;;;;9.45;7.53;;;;;;;;;;5009343;28;20034;-58
2024/01/22 02:51:00;;;;;;;9.45;7.55;;;;;;;;;;5019462;28;20085;-57
2024/01/22 02:53:25;;;;;;;9.82;7.85;;;;;;;;;;5021579;28;20093;-59
2024/01/22 02:55:50;;;;;;;9.02;7.30;;;;;;;;;;5009486;28;20052;-56
2024/01/22 02:58:16;;;;;;;9.95;7.82;;;;;;;;;;5008613;28;20033;-57
2024/01/22 03:00:41;;;;;;;9.80;7.68;;;;;;;;;;5008628;28;20040;-57
2024/01/22 03:03:06;;;;;;;9.60;7.65;;;;;;;;;;5008570;28;20044;-58
2024/01/22 03:05:32;;;;;;;10.13;7.60;;;;;;;;;;5008209;28;20124;-57
2024/01/22 03:07:57;;;;;;;9.18;7.55;;;;;;;;;;5009118;28;20038;-61
2024/01/22 03:10:22;;;;;;;10.02;7.53;;;;;;;;;;5014248;28;20045;-59
2024/01/22 03:12:47;;;;;;;9.40;7.75;;;;;;;;;;5008090;28;20085;-57
2024/01/22 03:15:13;;;;;;;9.07;7.30;;;;;;;;;;5004911;28;20037;-56
2024/01/22 03:17:39;;;;;;;9.20;7.22;;;;;;;;;;5008967;28;20412;-57
2024/01/22 03:20:04;;;;;;;10.32;7.60;;;;;;;;;;5008451;28;20038;-57
2024/01/22 03:22:30;;;;;;;9.30;7.78;;;;;;;;;;5008350;28;20019;-61
2024/01/22 03:24:55;;;;;;;10.18;7.95;;;;;;;;;;5007682;28;20057;-56
2024/01/22 03:27:20;;;;;;;10.38;8.43;;;;;;;;;;5009042;28;20522;-57
2024/01/22 03:29:46;;;;;;;9.90;7.90;;;;;;;;;;5009250;28;20065;-58
2024/01/22 03:32:11;;;;;;;9.38;8.27;;;;;;;;;;5009933;28;20095;-56
2024/01/22 03:34:36;;;;;;;10.45;7.85;;;;;;;;;;5005632;28;20053;-57
2024/01/22 03:37:01;;;;;;;10.48;7.97;;;;;;;;;;5008672;28;20042;-57
2024/01/22 03:39:27;;;;;;;9.98;8.05;;;;;;;;;;5008270;28;20061;-62
2024/01/22 03:41:52;;;;;;;11.32;8.35;;;;;;;;;;5009698;28;20513;-61
2024/01/22 03:44:17;;;;;;;10.05;8.10;;;;;;;;;;5025273;28;20033;-61
2024/01/22 03:46:43;;;;;;;10.07;7.72;;;;;;;;;;5009654;28;20050;-58
2024/01/22 03:49:08;;;;;;;10.40;7.85;;;;;;;;;;4995993;28;20030;-61
2024/01/22 03:51:33;;;;;;;10.18;8.18;;;;;;;;;;5007354;28;20136;-60
2024/01/22 03:53:59;;;;;;;10.32;8.25;;;;;;;;;;5006815;28;20631;-58
2024/01/22 03:56:24;;;;;;;9.95;8.02;;;;;;;;;;5007642;28;20116;-60
2024/01/22 03:58:49;;;;;;;10.80;8.55;;;;;;;;;;5009207;28;20026;-59
2024/01/22 04:01:18;;;;;;;10.88;8.00;;;;;;;;;;5007051;28;20025;-61
2024/01/22 04:03:43;;;;;;;9.10;7.53;;;;;;;;;;5007085;28;20541;-61
2024/01/22 04:06:09;;;;;;;9.80;8.13;;;;;;;;;;5007033;28;20053;-59
2024/01/22 04:08:34;;;;;;;9.85;8.18;;;;;;;;;;5006778;28;20037;-58
2024/01/22 04:10:59;;;;;;;10.23;8.15;;;;;;;;;;5007476;28;20044;-58
2024/01/22 04:13:24;;;;;;;10.38;8.40;;;;;;;;;;5007048;28;20435;-57
2024/01/22 04:15:52;;;;;;;10.02;8.43;;;;;;;;;;5004527;28;20097;-61
2024/01/22 04:18:18;;;;;;;9.30;7.78;;;;;;;;;;4991975;28;20037;-57
2024/01/22 04:20:43;;;;;;;9.75;7.80;;;;;;;;;;5003669;28;20022;-62
2024/01/22 04:23:08;;;;;;;10.63;8.10;;;;;;;;;;5005996;28;20025;-63
2024/01/22 04:25:34;;;;;;;10.13;7.93;;;;;;;;;;4992780;28;20549;-61
2024/01/22 04:27:59;;;;;;;9.65;7.97;;;;;;;;;;5010081;28;20018;-62
2024/01/22 04:30:24;;;;;;;11.00;7.93;;;;;;;;;;5006843;28;20053;-64
2024/01/22 04:32:50;;;;;;;10.13;8.15;;;;;;;;;;5005674;28;20020;-60
2024/01/22 04:35:15;;;;;;;9.65;7.95;;;;;;;;;;5001570;28;20192;-57
2024/01/22 04:37:40;;;;;;;9.80;7.70;;;;;;;;;;5006662;28;20404;-59
2024/01/22 04:40:09;;;;;;;10.02;8.23;;;;;;;;;;5006634;28;20116;-58
2024/01/22 04:42:34;;;;;;;9.82;7.50;;;;;;;;;;5007336;28;20172;-66
2024/01/22 04:45:00;;;;;;;10.63;7.90;;;;;;;;;;5004750;28;20121;-60
2024/01/22 04:47:25;;;;;;;10.40;7.88;;;;;;;;;;5005027;28;20033;-58
2024/01/22 04:49:50;;;;;;;10.40;8.27;;;;;;;;;;5005966;28;20033;-56
2024/01/22 04:52:16;;;;;;;9.38;8.30;;;;;;;;;;5004092;28;20258;-57
2024/01/22 04:54:41;;;;;;;10.30;8.70;;;;;;;;;;4992624;28;20471;-56
2024/01/22 04:57:06;;;;;;;10.15;7.78;;;;;;;;;;4996371;28;20037;-58
2024/01/22 04:59:32;;;;;;;10.00;7.90;;;;;;;;;;5006838;28;20018;-61
2024/01/22 05:01:57;;;;;;;9.68;7.80;;;;;;;;;;5004089;28;20029;-58
2024/01/22 05:04:22;;;;;;;10.40;8.27;;;;;;;;;;4991176;28;20032;-64
2024/01/22 05:06:48;;;;;;;11.13;8.63;;;;;;;;;;4997443;28;21543;-58
2024/01/22 05:09:14;;;;;;;9.85;7.88;;;;;;;;;;5007239;28;20439;-58
2024/01/22 05:11:40;;;;;;;8.80;7.35;;;;;;;;;;4999766;28;20216;-62
2024/01/22 05:14:05;;;;;;;10.40;8.00;;;;;;;;;;4990553;28;20904;-59
2024/01/22 05:16:32;;;;;;;10.43;8.30;;;;;;;;;;5003191;28;20539;-57
2024/01/22 05:18:57;;;;;;;9.57;7.30;;;;;;;;;;5000790;28;20066;-56
2024/01/22 05:21:23;;;;;;;9.88;7.68;;;;;;;;;;5002505;28;20069;-56
2024/01/22 05:23:49;;;;;;;9.80;7.78;;;;;;;;;;5004131;28;20065;-56
2024/01/22 05:26:14;;;;;;;9.55;7.85;;;;;;;;;;5015551;28;20456;-55
2024/01/22 05:28:39;;;;;;;9.52;7.75;;;;;;;;;;5008341;28;20105;-58
2024/01/22 05:31:05;;;;;;;9.55;7.72;;;;;;;;;;5008231;28;20034;-62
2024/01/22 05:33:30;;;;;;;10.05;8.00;;;;;;;;;;5007556;28;20120;-59
2024/01/22 05:35:55;;;;;;;10.35;8.10;;;;;;;;;;5025767;28;20034;-56
2024/01/22 05:38:21;;;;;;;10.30;7.50;;;;;;;;;;5010445;28;20141;-56
2024/01/22 05:40:46;;;;;;;9.75;7.53;;;;;;;;;;5010150;28;20030;-62
2024/01/22 05:43:11;;;;;;;9.65;7.38;;;;;;;;;;5005489;28;20031;-60
2024/01/22 05:45:37;;;;;;;10.02;7.68;;;;;;;;;;5013505;28;20042;-59
2024/01/22 05:48:03;;;;;;;9.32;7.57;;;;;;;;;;5009804;28;20034;-60
2024/01/22 05:50:28;;;;;;;10.55;7.90;;;;;;;;;;5005748;28;20041;-55
2024/01/22 05:52:54;;;;;;;9.70;7.30;;;;;;;;;;4998962;28;20535;-58
2024/01/22 05:55:19;;;;;;;8.95;6.72;;;;;;;;;;4992308;28;20429;-62
2024/01/22 05:57:44;;;;;;;8.45;7.55;;;;;;;;;;5004053;28;20034;-55
2024/01/22 06:00:13;;;;;;;9.25;7.40;;;;;;;;;;5010072;28;20118;-62
2024/01/22 06:02:41;;;;;;;9.23;7.03;;;;;;;;;;5009223;28;20022;-58
2024/01/22 06:05:07;;;;;;;8.68;7.05;;;;;;;;;;5000424;28;20045;-55
2024/01/22 06:07:32;;;;;;;9.95;7.57;;;;;;;;;;5003937;28;20030;-59
2024/01/22 06:09:58;;;;;;;11.95;8.50;;;;;;;;;;5000636;28;20508;-58
2024/01/22 06:12:24;;;;;;;9.95;7.68;;;;;;;;;;4997306;28;20034;-59
2024/01/22 06:14:49;;;;;;;9.10;6.93;;;;;;;;;;4988227;28;20575;-55
2024/01/22 06:17:14;;;;;;;10.75;7.78;;;;;;;;;;5001518;28;20457;-56
2024/01/22 06:19:39;;;;;;;8.50;6.75;;;;;;;;;;4996027;28;20600;-59
2024/01/22 06:22:05;;;;;;;8.55;7.03;;;;;;;;;;4990020;28;20034;-57
2024/01/22 06:24:34;;;;;;;9.25;7.20;;;;;;;;;;4998928;28;20038;-56
2024/01/22 06:26:59;;;;;;;8.38;6.93;;;;;;;;;;4998297;28;20030;-58
2024/01/22 06:29:25;;;;;;;9.88;7.60;;;;;;;;;;4997359;28;20158;-55
2024/01/22 06:31:50;;;;;;;8.00;6.50;;;;;;;;;;4991732;28;20055;-56
2024/01/22 06:34:15;;;;;;;9.15;6.93;;;;;;;;;;4999890;28;20427;-63
2024/01/22 06:36:41;;;;;;;9.15;7.18;;;;;;;;;;4991658;28;20196;-59
2024/01/22 06:39:08;;;;;;;8.25;6.90;;;;;;;;;;4995630;28;20085;-61
2024/01/22 06:41:33;;;;;;;8.63;6.95;;;;;;;;;;4996156;28;20026;-61
2024/01/22 06:43:59;;;;;;;8.63;7.05;;;;;;;;;;4991798;28;20042;-59
2024/01/22 06:46:24;;;;;;;9.55;6.88;;;;;;;;;;4986133;28;20049;-58
2024/01/22 06:48:49;;;;;;;7.93;6.45;;;;;;;;;;5007463;28;20628;-58
2024/01/22 06:51:16;;;;;;;10.73;6.72;;;;;;;;;;5004849;28;20037;-58
2024/01/22 06:53:42;;;;;;;7.95;6.35;;;;;;;;;;5024462;28;20041;-62
2024/01/22 06:56:08;;;;;;;9.52;7.00;;;;;;;;;;4993838;28;20038;-56
2024/01/22 06:58:33;;;;;;;9.35;6.57;;;;;;;;;;4998958;28;20412;-57
2024/01/22 07:00:58;;;;;;;9.20;6.80;;;;;;;;;;4994890;28;20033;-56
2024/01/22 07:03:24;;;;;;;8.13;6.03;;;;;;;;;;4995807;28;20118;-59
2024/01/22 07:05:49;;;;;;;8.32;7.00;;;;;;;;;;5007812;28;20030;-56
2024/01/22 07:08:15;;;;;;;8.98;6.65;;;;;;;;;;4991815;28;20039;-57
2024/01/22 07:10:40;;;;;;;8.50;6.57;;;;;;;;;;4995156;28;20046;-57
2024/01/22 07:13:06;;;;;;;8.90;6.68;;;;;;;;;;4990376;28;20095;-58
2024/01/22 07:15:31;;;;;;;8.23;6.40;;;;;;;;;;4988359;28;20076;-62
2024/01/22 07:17:57;;;;;;;8.98;6.63;;;;;;;;;;4995442;28;20026;-56
2024/01/22 07:20:22;;;;;;;11.82;6.30;;;;;;;;;;4996812;28;20034;-58
2024/01/22 07:22:47;;;;;;;14.73;7.30;;;;;;;;;;5006356;28;20033;-63
2024/01/22 07:25:13;;;;;;;15.55;7.03;;;;;;;;;;4999222;28;20050;-57
2024/01/22 07:27:41;;;;;;;12.57;6.95;;;;;;;;;;5008608;28;20080;-55
2024/01/22 07:30:08;;;;;;;15.52;6.97;;;;;;;;;;4994290;28;20057;-56
2024/01/22 07:32:36;;;;;;;11.93;6.63;;;;;;;;;;4998971;28;20026;-63
2024/01/22 07:35:03;;;;;;;14.82;6.30;;;;;;;;;;4999856;28;20034;-58
2024/01/22 07:37:28;;;;;;;12.55;6.63;;;;;;;;;;5002909;28;20137;-57
2024/01/22 07:39:53;;;;;;;12.35;6.55;;;;;;;;;;4996059;28;20113;-59
2024/01/22 07:42:19;;;;;;;16.25;6.57;;;;;;;;;;4991360;28;20037;-59
2024/01/22 07:44:44;;;;;;;9.57;6.57;;;;;;;;;;4990711;28;20096;-57
2024/01/22 07:47:11;;;;;;;12.85;6.80;;;;;;;;;;4995443;28;20038;-58
2024/01/22 07:49:36;;;;;;;13.27;6.55;;;;;;;;;;4995136;28;20042;-66
2024/01/22 07:52:02;;;;;;;21.77;8.70;;;;;;;;;;4991646;28;20049;-57
2024/01/22 07:54:28;;;;;;;20.33;9.18;;;;;;;;;;4997394;28;20172;-61
2024/01/22 07:56:53;;;;;;;18.70;8.23;;;;;;;;;;4991462;28;20126;-60
2024/01/22 07:59:18;;;;;;;21.63;7.82;;;;;;;;;;4993802;28;20038;-62
2024/01/22 08:01:44;;;;;;;17.83;7.88;;;;;;;;;;4988521;28;20106;-60
2024/01/22 08:04:09;;;;;;;15.90;7.25;;;;;;;;;;4987971;28;20113;-55
2024/01/22 08:06:34;;;;;;;18.63;7.90;;;;;;;;;;4990399;28;20034;-59
2024/01/22 08:09:00;;;;;;;16.35;7.20;;;;;;;;;;4987000;28;20108;-56
2024/01/22 08:11:25;;;;;;;14.38;7.00;;;;;;;;;;4993704;28;20069;-57
2024/01/22 08:13:50;;;;;;;16.50;7.25;;;;;;;;;;4990265;28;20039;-60
2024/01/22 08:16:16;;;;;;;11.85;7.32;;;;;;;;;;4991046;28;20050;-57
2024/01/22 08:18:41;;;;;;;13.75;6.47;;;;;;;;;;4989806;28;20439;-60
2024/01/22 08:21:07;;;;;;;12.05;6.68;;;;;;;;;;4999320;28;20033;-55
2024/01/22 08:23:32;;;;;;;12.75;6.80;;;;;;;;;;4990548;28;20099;-58
2024/01/22 08:25:58;;;;;;;14.48;6.97;;;;;;;;;;4993817;28;20125;-57
2024/01/22 08:28:24;;;;;;;20.65;6.95;;;;;;;;;;4994319;28;20123;-62
2024/01/22 08:30:49;;;;;;;12.23;6.85;;;;;;;;;;4991258;28;20107;-60
2024/01/22 08:33:14;;;;;;;11.93;6.80;;;;;;;;;;4996064;28;20448;-57
2024/01/22 08:35:40;;;;;;;17.40;7.43;;;;;;;;;;4997313;28;20038;-59
2024/01/22 08:38:05;;;;;;;15.10;6.85;;;;;;;;;;4992370;28;20045;-58
2024/01/22 08:40:30;;;;;;;13.02;6.55;;;;;;;;;;4989902;28;20042;-57
2024/01/22 08:42:57;;;;;;;14.48;6.53;;;;;;;;;;4988801;28;20046;-58
2024/01/22 08:45:22;;;;;;;13.38;6.80;;;;;;;;;;4993441;28;20180;-58
2024/01/22 08:47:50;;;;;;;17.52;7.03;;;;;;;;;;4990970;28;20129;-57
2024/01/22 08:50:18;;;;;;;12.50;6.65;;;;;;;;;;4989137;28;20483;-55
2024/01/22 08:52:45;;;;;;;16.50;6.85;;;;;;;;;;4988941;28;20076;-57
2024/01/22 08:55:10;;;;;;;13.48;7.28;;;;;;;;;;4992700;28;20117;-62
2024/01/22 08:57:36;;;;;;;12.45;7.07;;;;;;;;;;4986936;28;20121;-55
2024/01/22 09:00:05;;;;;;;10.75;6.85;;;;;;;;;;4992632;28;20077;-58
2024/01/22 09:02:31;;;;;;;13.20;6.60;;;;;;;;;;5018539;28;20861;-60
2024/01/22 09:04:56;;;;;;;14.63;6.60;;;;;;;;;;5006532;28;20038;-59
2024/01/22 09:07:21;;;;;;;11.93;6.47;;;;;;;;;;5004677;28;20044;-64
2024/01/22 09:09:46;;;;;;;12.90;6.70;;;;;;;;;;5007028;28;20892;-55
2024/01/22 09:12:12;;;;;;;11.13;7.20;;;;;;;;;;5008605;28;20351;-57
2024/01/22 09:14:37;;;;;;;13.63;6.90;;;;;;;;;;5009314;28;20281;-56
2024/01/22 09:17:02;;;;;;;11.85;7.20;;;;;;;;;;5006239;28;20445;-59
2024/01/22 09:19:27;;;;;;;11.38;6.43;;;;;;;;;;5007285;28;20061;-58
2024/01/22 09:21:53;;;;;;;13.00;7.07;;;;;;;;;;5008743;28;20038;-59
2024/01/22 09:24:18;;;;;;;9.45;6.65;;;;;;;;;;5005301;28;20714;-57
2024/01/22 09:26:43;;;;;;;11.87;7.10;;;;;;;;;;5006449;28;20080;-57
2024/01/22 09:29:08;;;;;;;13.07;7.10;;;;;;;;;;5008084;28;20292;-63
2024/01/22 09:31:34;;;;;;;10.60;7.10;;;;;;;;;;5001721;28;20300;-59
2024/01/22 09:33:59;;;;;;;10.63;6.55;;;;;;;;;;4997281;28;20747;-58
2024/01/22 09:36:24;;;;;;;10.93;7.17;;;;;;;;;;5003644;28;20034;-58
2024/01/22 09:38:50;;;;;;;11.93;6.87;;;;;;;;;;5013971;28;20312;-59
2024/01/22 09:41:15;;;;;;;11.98;6.35;;;;;;;;;;5008464;28;20303;-61
2024/01/22 09:43:40;;;;;;;9.27;6.17;;;;;;;;;;5008808;28;20068;-57
2024/01/22 09:46:05;;;;;;;11.68;7.13;;;;;;;;;;5002492;28;20315;-57
2024/01/22 09:48:32;;;;;;;9.55;6.40;;;;;;;;;;5003684;28;20520;-62
2024/01/22 09:50:57;;;;;;;11.98;6.72;;;;;;;;;;5005869;28;20110;-59
2024/01/22 09:53:22;;;;;;;10.20;6.82;;;;;;;;;;5014533;28;20460;-60
2024/01/22 09:55:48;;;;;;;9.95;6.75;;;;;;;;;;5021946;28;20599;-59
2024/01/22 09:58:17;;;;;;;9.73;6.47;;;;;;;;;;5015579;28;20037;-58
2024/01/22 10:00:42;;;;;;;10.27;6.30;;;;;;;;;;5022146;28;20034;-57
2024/01/22 10:03:07;;;;;;;10.23;6.53;;;;;;;;;;5001814;28;20041;-58
2024/01/22 10:05:34;;;;;;;10.63;6.90;;;;;;;;;;5008450;28;20053;-58
2024/01/22 10:07:59;;;;;;;10.77;6.78;;;;;;;;;;5002417;28;20078;-60
2024/01/22 10:10:25;;;;;;;11.10;6.82;;;;;;;;;;5004261;28;20065;-56
2024/01/22 10:12:56;;;;;;;11.80;6.93;;;;;;;;;;5007990;28;20041;-58
2024/01/22 10:15:22;;;;;;;8.93;7.18;;;;;;;;;;5004647;28;20042;-57
2024/01/22 10:17:47;;;;;;;9.32;6.20;;;;;;;;;;5000579;28;20448;-58
2024/01/22 10:20:13;;;;;;;11.15;6.55;;;;;;;;;;4996721;28;20026;-58
2024/01/22 10:22:38;;;;;;;10.25;6.82;;;;;;;;;;4992575;28;20041;-57
2024/01/22 10:25:04;;;;;;;9.68;6.90;;;;;;;;;;4991167;28;20033;-61
2024/01/22 10:27:29;;;;;;;10.20;6.28;;;;;;;;;;4991028;28;20226;-57
2024/01/22 10:30:24;;;;;;;11.80;7.10;;;;;;;;;;4998218;28;20038;-59
2024/01/22 10:32:49;;;;;;;10.10;6.50;;;;;;;;;;4988389;28;20688;-60
2024/01/22 10:35:21;;;;;;;10.75;6.00;;;;;;;;;;4999449;28;20054;-58
2024/01/22 10:37:46;;;;;;;13.98;6.82;;;;;;;;;;4999707;28;20026;-60
2024/01/22 10:40:13;;;;;;;9.48;6.40;;;;;;;;;;5014167;28;20045;-56
2024/01/22 10:42:38;;;;;;;11.65;7.18;;;;;;;;;;4995147;28;20032;-56
2024/01/22 10:45:03;;;;;;;11.07;7.28;;;;;;;;;;4990393;28;20030;-56
2024/01/22 10:47:29;;;;;;;12.05;7.35;;;;;;;;;;5006150;28;21527;-57
2024/01/22 10:49:54;;;;;;;10.15;7.00;;;;;;;;;;4995291;28;20079;-56
2024/01/22 10:52:19;;;;;;;11.05;7.68;;;;;;;;;;5001405;28;20014;-57
2024/01/22 10:54:45;;;;;;;11.60;7.82;;;;;;;;;;4992881;28;20030;-66
2024/01/22 10:57:24;;;;;;;12.68;7.28;;;;;;;;;;4993905;28;20800;-57
2024/01/22 10:59:50;;;;;;;10.77;7.70;;;;;;;;;;4997848;28;20049;-63
2024/01/22 11:02:17;;;;;;;12.52;7.25;;;;;;;;;;5023197;28;20034;-61
2024/01/22 11:04:43;;;;;;;10.32;6.97;;;;;;;;;;5000455;28;20104;-61
2024/01/22 11:07:08;;;;;;;12.63;8.20;;;;;;;;;;4991541;28;20046;-55
2024/01/22 11:09:34;;;;;;;11.45;8.23;;;;;;;;;;5008372;28;20042;-59
2024/01/22 11:12:03;;;;;;;11.02;7.82;;;;;;;;;;5005863;28;20282;-56
2024/01/22 11:14:28;;;;;;;12.63;8.50;;;;;;;;;;5007007;28;20586;-55
2024/01/22 11:16:53;;;;;;;11.38;7.75;;;;;;;;;;4990731;28;20579;-61
2024/01/22 11:19:19;;;;;;;11.88;7.40;;;;;;;;;;4989652;28;20049;-56
2024/01/22 11:21:44;;;;;;;11.32;8.32;;;;;;;;;;4997980;28;20030;-58
2024/01/22 11:24:14;;;;;;;10.70;7.85;;;;;;;;;;5013268;28;20051;-58
2024/01/22 11:26:45;;;;;;;12.43;8.75;;;;;;;;;;4989440;28;20029;-59
2024/01/22 11:29:14;;;;;;;13.95;8.93;;;;;;;;;;4987288;28;20512;-59
2024/01/22 11:31:39;;;;;;;12.75;8.55;;;;;;;;;;4988419;28;20042;-60
2024/01/22 11:34:05;;;;;;;14.57;8.73;;;;;;;;;;4995323;28;20046;-56
2024/01/22 11:36:49;;;;;;;12.77;8.10;;;;;;;;;;4990966;28;20179;-65
2024/01/22 11:39:32;;;;;;;10.73;7.57;;;;;;;;;;5004705;28;20030;-63
2024/01/22 11:41:57;;;;;;;12.25;8.43;;;;;;;;;;4990424;28;20056;-61
2024/01/22 11:44:26;;;;;;;12.57;8.48;;;;;;;;;;4996503;28;20034;-61
2024/01/22 11:47:11;;;;;;;12.63;7.68;;;;;;;;;;5000638;28;20040;-59
2024/01/22 11:49:37;;;;;;;10.90;8.05;;;;;;;;;;5007183;28;20054;-62
2024/01/22 11:52:11;;;;;;;10.57;8.20;;;;;;;;;;4990375;28;20038;-56
2024/01/22 11:54:37;;;;;;;14.70;9.02;;;;;;;;;;4990581;28;20117;-56
2024/01/22 11:57:02;;;;;;;11.27;7.93;;;;;;;;;;4991614;28;20038;-57
2024/01/22 11:59:28;;;;;;;13.60;8.95;;;;;;;;;;5003837;28;20121;-58
2024/01/22 12:02:04;;;;;;;13.13;8.73;;;;;;;;;;4991932;28;20058;-59
2024/01/22 12:04:30;;;;;;;13.02;8.48;;;;;;;;;;4994069;28;20475;-59
2024/01/22 12:06:55;;;;;;;12.70;8.43;;;;;;;;;;4997879;28;20132;-57
2024/01/22 12:09:20;;;;;;;11.70;8.48;;;;;;;;;;4992887;28;20042;-55
2024/01/22 12:11:52;;;;;;;14.73;8.23;;;;;;;;;;4992673;28;20038;-59
2024/01/22 12:14:17;;;;;;;13.35;8.85;;;;;;;;;;4994380;28;20035;-55
2024/01/22 12:16:43;;;;;;;13.95;8.93;;;;;;;;;;4994307;28;20041;-57
2024/01/22 12:19:11;;;;;;;12.85;8.98;;;;;;;;;;4994901;28;20065;-59
2024/01/22 12:21:39;;;;;;;23.83;15.77;;;;;;;;;;4996607;28;20042;-58
2024/01/22 12:24:12;;;;;;;15.15;10.32;;;;;;;;;;4995046;28;20038;-65
2024/01/22 12:26:40;;;;;;;14.57;10.20;;;;;;;;;;4993488;28;20053;-56
2024/01/22 12:29:05;;;;;;;14.25;10.10;;;;;;;;;;4988036;28;20023;-59
2024/01/22 12:31:30;;;;;;;14.30;10.63;;;;;;;;;;4990494;28;20061;-60
2024/01/22 12:34:11;;;;;;;15.10;11.10;;;;;;;;;;4983915;28;20030;-57
2024/01/22 12:36:36;;;;;;;14.15;10.57;;;;;;;;;;4987030;28;20042;-57
2024/01/22 12:39:03;;;;;;;16.58;11.43;;;;;;;;;;4987419;28;20445;-58
2024/01/22 12:41:30;;;;;;;15.32;11.25;;;;;;;;;;4987407;28;20104;-57
2024/01/22 12:43:56;;;;;;;16.27;10.93;;;;;;;;;;4990278;28;20038;-59
2024/01/22 12:46:22;;;;;;;15.88;10.95;;;;;;;;;;4993983;28;20057;-57
2024/01/22 12:48:47;;;;;;;16.83;11.13;;;;;;;;;;4992413;28;20357;-57
2024/01/22 12:51:13;;;;;;;17.20;11.13;;;;;;;;;;4992454;28;20769;-58
2024/01/22 12:53:41;;;;;;;15.75;11.07;;;;;;;;;;5002137;28;20026;-60
2024/01/22 12:56:07;;;;;;;16.60;11.48;;;;;;;;;;4994725;28;20038;-61
2024/01/22 12:58:33;;;;;;;16.15;11.50;;;;;;;;;;4992737;28;20038;-59
2024/01/22 13:00:59;;;;;;;16.98;11.60;;;;;;;;;;4995467;28;20173;-60
2024/01/22 13:03:24;;;;;;;17.67;11.50;;;;;;;;;;4995918;28;20500;-61
2024/01/22 13:05:50;;;;;;;16.13;11.23;;;;;;;;;;4992509;28;20038;-61
2024/01/22 13:08:15;;;;;;;16.25;11.52;;;;;;;;;;4996964;28;20021;-63
2024/01/22 13:10:41;;;;;;;16.98;11.63;;;;;;;;;;4996167;28;20333;-58
2024/01/22 13:13:06;;;;;;;17.67;12.07;;;;;;;;;;5002038;28;20164;-55
2024/01/22 13:15:31;;;;;;;16.08;11.43;;;;;;;;;;4997492;28;20239;-56
2024/01/22 13:17:57;;;;;;;17.58;11.65;;;;;;;;;;5007780;28;20038;-55
2024/01/22 13:20:22;;;;;;;17.80;11.70;;;;;;;;;;5009873;28;20064;-59
2024/01/22 13:22:48;;;;;;;17.65;11.85;;;;;;;;;;5009829;28;20030;-61
2024/01/22 13:25:13;;;;;;;20.08;12.70;;;;;;;;;;5008594;28;20041;-58
2024/01/22 13:27:39;;;;;;;17.40;11.43;;;;;;;;;;5010482;28;20045;-61
2024/01/22 13:30:05;;;;;;;16.58;11.50;;;;;;;;;;5009401;28;20056;-58
2024/01/22 13:32:31;;;;;;;19.75;12.07;;;;;;;;;;5009605;28;20121;-60
2024/01/22 13:34:56;;;;;;;15.75;10.93;;;;;;;;;;5009456;28;20117;-61
2024/01/22 13:37:22;;;;;;;17.65;11.98;;;;;;;;;;5016009;28;20057;-66
2024/01/22 13:39:47;;;;;;;18.13;11.63;;;;;;;;;;5022751;28;20567;-65
2024/01/22 13:42:13;;;;;;;18.17;12.35;;;;;;;;;;5009579;28;20030;-65
2024/01/22 13:44:38;;;;;;;17.92;12.18;;;;;;;;;;5005803;28;20036;-61
2024/01/22 13:47:03;;;;;;;18.08;12.25;;;;;;;;;;5011268;28;20239;-66
2024/01/22 13:49:29;;;;;;;18.33;12.68;;;;;;;;;;5008919;28;20121;-60
2024/01/22 13:51:56;;;;;;;16.40;11.80;;;;;;;;;;5006605;28;20048;-64
2024/01/22 13:54:21;;;;;;;17.63;12.20;;;;;;;;;;5009347;28;20038;-60
2024/01/22 13:56:46;;;;;;;17.17;12.07;;;;;;;;;;5014198;28;20046;-57
2024/01/22 13:59:12;;;;;;;17.55;12.43;;;;;;;;;;5007840;28;20038;-57
2024/01/22 14:01:37;;;;;;;20.90;13.50;;;;;;;;;;5015817;28;20356;-60
2024/01/22 14:04:03;;;;;;;19.05;12.55;;;;;;;;;;4999924;28;20504;-59
2024/01/22 14:06:28;;;;;;;19.85;13.73;;;;;;;;;;4997645;28;20475;-60
2024/01/22 14:08:53;;;;;;;18.42;13.23;;;;;;;;;;5011685;28;20500;-62
2024/01/22 14:11:19;;;;;;;19.52;13.18;;;;;;;;;;5010711;28;20038;-60
2024/01/22 14:13:47;;;;;;;22.85;14.30;;;;;;;;;;5008664;28;20033;-59
2024/01/22 14:16:12;;;;;;;19.50;14.35;;;;;;;;;;5000925;28;20046;-60
2024/01/22 14:18:38;;;;;;;21.20;14.27;;;;;;;;;;4994554;28;20039;-61
2024/01/22 14:21:03;;;;;;;20.77;14.20;;;;;;;;;;5010660;28;20088;-60
2024/01/22 14:23:29;;;;;;;18.83;12.95;;;;;;;;;;5008562;28;20519;-61
2024/01/22 14:25:55;;;;;;;19.42;13.65;;;;;;;;;;5010316;28;20053;-61
2024/01/22 14:28:20;;;;;;;20.58;13.35;;;;;;;;;;5009249;28;20448;-59